Atlantic Beach, Florida
Current Conditions -  °F | °C
As of 10:52 AM on Friday 21 Nov 2014 (Local Time) from KNRB Reporting Station
Clear Clear  
Wind Chill: 66°   Ceiling: Unl
Heat Index: 66°   Visibility: 10mi
Dew Point: 50°   Wind: 14mph
Humidity: 56%   Direction: 40°NE
Pressure: 30.37"   Gusts: NA
Location:  30.33°N, 81.4°W
Report Text: KNRB 211552Z 04012KT 10SM CLR 19/10 A3037 RMK AO2 SLP282 T01890100 $
Loading
Personal Weather Stations






























Interactive Weather Map New forecast layout! Learn more

10-Day Weather Forecast

Advertisements
Track Severe Weather on mobile